createdAt,value
2022-08-23T00:02:28.911Z,10.20
2022-08-23T00:05:08.013Z,10.10
2022-08-23T00:07:39.012Z,10.10
2022-08-23T00:10:14.128Z,10.00
2022-08-23T00:12:45.776Z,9.90
2022-08-23T00:15:15.579Z,9.90
2022-08-23T00:17:51.048Z,9.80
2022-08-23T00:20:20.651Z,9.70
2022-08-23T00:22:47.858Z,9.70
2022-08-23T00:25:26.375Z,9.70
2022-08-23T00:27:59.925Z,9.70
2022-08-23T00:30:27.491Z,9.60
2022-08-23T00:32:58.113Z,9.60
2022-08-23T00:35:31.867Z,9.50
2022-08-23T00:38:31.765Z,9.40
2022-08-23T00:40:49.446Z,9.40
2022-08-23T00:43:38.350Z,9.30
2022-08-23T00:46:59.929Z,9.30
2022-08-23T00:49:27.174Z,9.30
2022-08-23T00:52:03.116Z,9.20
2022-08-23T00:54:35.440Z,9.20
2022-08-23T00:57:06.605Z,9.20
2022-08-23T00:59:33.603Z,9.20
2022-08-23T01:02:01.710Z,9.10
2022-08-23T01:04:34.096Z,9.20
2022-08-23T01:07:17.099Z,9.10
2022-08-23T01:09:46.948Z,9.10
2022-08-23T01:12:33.130Z,9.10
2022-08-23T01:15:11.452Z,9.10
2022-08-23T01:17:43.784Z,9.10
2022-08-23T01:20:17.611Z,9.10
2022-08-23T01:22:53.051Z,9.00
2022-08-23T01:25:22.698Z,8.90
2022-08-23T01:27:50.629Z,8.90
2022-08-23T01:30:25.621Z,8.90
2022-08-23T01:32:59.570Z,8.90
2022-08-23T01:35:45.181Z,8.90
2022-08-23T01:38:13.199Z,8.70
2022-08-23T01:40:41.088Z,8.70
2022-08-23T01:43:09.100Z,8.80
2022-08-23T01:45:37.029Z,8.70
2022-08-23T01:48:09.865Z,8.70
2022-08-23T01:53:05.810Z,8.60
2022-08-23T01:55:36.384Z,8.60
2022-08-23T01:58:05.856Z,8.60
2022-08-23T02:00:36.964Z,8.60
2022-08-23T02:03:08.501Z,8.60
2022-08-23T02:05:37.244Z,8.60
2022-08-23T02:08:25.080Z,8.50
2022-08-23T02:11:23.474Z,8.40
2022-08-23T02:13:54.503Z,8.40
2022-08-23T02:16:28.178Z,8.50
2022-08-23T02:18:56.518Z,8.40
2022-08-23T02:21:25.099Z,8.50
2022-08-23T02:26:47.741Z,8.40
2022-08-23T02:29:24.914Z,8.30
2022-08-23T02:31:51.814Z,8.30
2022-08-23T02:34:37.176Z,8.30
2022-08-23T02:37:04.677Z,8.30
2022-08-23T02:39:31.700Z,8.30
2022-08-23T02:41:58.502Z,8.30
2022-08-23T02:44:26.253Z,8.20
2022-08-23T02:46:56.623Z,8.30
2022-08-23T02:49:25.996Z,8.20
2022-08-23T02:51:53.950Z,8.10
2022-08-23T02:54:23.229Z,8.00
2022-08-23T02:56:50.047Z,8.00
2022-08-23T02:59:17.551Z,8.00
2022-08-23T03:01:46.038Z,8.00
2022-08-23T03:04:16.399Z,7.90
2022-08-23T03:06:43.740Z,7.90
2022-08-23T03:09:11.448Z,7.90
2022-08-23T03:11:45.863Z,7.90
2022-08-23T03:14:13.043Z,7.90
2022-08-23T03:16:40.905Z,7.90
2022-08-23T03:19:10.826Z,7.80
2022-08-23T03:21:38.500Z,7.90
2022-08-23T03:24:12.127Z,8.00
2022-08-23T03:26:42.897Z,7.90
2022-08-23T03:29:13.724Z,7.80
2022-08-23T03:31:45.666Z,7.80
2022-08-23T03:34:12.429Z,7.70
2022-08-23T03:36:39.692Z,7.60
2022-08-23T03:39:07.290Z,7.60
2022-08-23T03:41:34.660Z,7.60
2022-08-23T03:44:01.494Z,7.70
2022-08-23T03:46:34.249Z,7.70
2022-08-23T03:51:43.472Z,8.00
2022-08-23T03:54:10.944Z,8.00
2022-08-23T03:56:49.501Z,7.90
2022-08-23T03:59:16.755Z,7.80
2022-08-23T04:01:44.267Z,7.70
2022-08-23T04:04:11.289Z,7.70
2022-08-23T04:06:38.820Z,7.80
2022-08-23T04:09:07.879Z,7.70
2022-08-23T04:11:35.086Z,7.70
2022-08-23T04:14:02.099Z,7.60
2022-08-23T04:16:30.701Z,7.50
2022-08-23T04:18:57.915Z,7.40
2022-08-23T04:21:35.340Z,7.40
2022-08-23T04:24:02.288Z,7.30
2022-08-23T04:26:38.184Z,7.30
2022-08-23T04:29:05.400Z,7.30
2022-08-23T04:31:34.710Z,7.40
2022-08-23T04:34:02.283Z,7.60
2022-08-23T04:36:34.905Z,7.70
2022-08-23T04:39:01.857Z,7.80
2022-08-23T04:41:47.169Z,7.80
2022-08-23T04:44:17.621Z,7.70
2022-08-23T04:46:46.997Z,7.50
2022-08-23T04:49:20.000Z,7.60
2022-08-23T04:51:53.000Z,7.50
2022-08-23T04:54:21.343Z,7.50
2022-08-23T04:56:50.984Z,7.70
2022-08-23T04:59:22.172Z,7.90
2022-08-23T05:01:52.075Z,7.90
2022-08-23T05:04:22.367Z,8.10
2022-08-23T05:06:51.324Z,8.10
2022-08-23T05:09:20.673Z,8.00
2022-08-23T05:11:48.092Z,7.90
2022-08-23T05:14:21.457Z,8.00
2022-08-23T05:16:54.366Z,8.30
2022-08-23T05:19:21.724Z,8.40
2022-08-23T05:21:56.378Z,8.60
2022-08-23T05:24:24.075Z,8.80
2022-08-23T05:26:53.503Z,9.00
2022-08-23T05:29:23.472Z,9.20
2022-08-23T05:31:50.451Z,9.40
2022-08-23T05:34:22.597Z,9.50
2022-08-23T05:36:56.205Z,9.50
2022-08-23T05:39:26.363Z,9.60
2022-08-23T05:42:03.259Z,9.70
2022-08-23T05:44:30.251Z,9.90
2022-08-23T05:47:04.712Z,10.00
2022-08-23T05:49:39.981Z,10.20
2022-08-23T05:52:12.974Z,10.30
2022-08-23T05:54:40.326Z,10.40
2022-08-23T05:57:07.208Z,10.40
2022-08-23T05:59:35.138Z,10.50
2022-08-23T06:02:02.356Z,10.60
2022-08-23T06:04:29.516Z,10.90
2022-08-23T06:06:59.407Z,11.00
2022-08-23T06:09:28.820Z,11.20
2022-08-23T06:11:59.407Z,11.50
2022-08-23T06:14:29.034Z,11.70
2022-08-23T06:16:56.509Z,12.10
2022-08-23T06:19:24.059Z,12.50
2022-08-23T06:21:51.977Z,12.80
2022-08-23T06:24:25.703Z,13.10
2022-08-23T06:26:52.731Z,13.50
2022-08-23T06:29:22.902Z,13.90
2022-08-23T06:31:52.060Z,14.30
2022-08-23T06:34:19.133Z,14.50
2022-08-23T06:36:48.664Z,14.70
2022-08-23T06:39:20.910Z,14.90
2022-08-23T06:41:49.023Z,15.10
2022-08-23T06:44:17.457Z,15.20
2022-08-23T06:46:49.073Z,15.40
2022-08-23T06:49:16.505Z,15.60
2022-08-23T06:51:50.480Z,15.70
2022-08-23T06:54:22.249Z,15.80
2022-08-23T06:56:50.457Z,16.00
2022-08-23T06:59:18.809Z,16.10
2022-08-23T07:01:59.590Z,16.30
2022-08-23T07:04:30.054Z,16.40
2022-08-23T07:06:57.772Z,16.50
2022-08-23T07:09:25.331Z,16.60
2022-08-23T07:11:59.824Z,16.70
2022-08-23T07:14:27.883Z,16.70
2022-08-23T07:16:59.476Z,16.70
2022-08-23T07:19:31.426Z,16.80
2022-08-23T07:21:59.483Z,16.80
2022-08-23T07:24:30.804Z,16.80
2022-08-23T07:27:01.700Z,16.90
2022-08-23T07:29:31.689Z,17.00
2022-08-23T07:31:58.992Z,17.10
2022-08-23T07:34:32.043Z,17.20
2022-08-23T07:37:15.226Z,17.30
2022-08-23T07:39:42.934Z,17.40
2022-08-23T07:42:23.486Z,17.50
2022-08-23T07:44:57.602Z,17.50
2022-08-23T07:47:24.878Z,17.60
2022-08-23T07:49:51.931Z,17.70
2022-08-23T07:52:22.300Z,17.60
2022-08-23T07:54:58.142Z,17.80
2022-08-23T07:57:26.744Z,17.80
2022-08-23T07:59:53.693Z,17.70
2022-08-23T08:02:22.609Z,17.90
2022-08-23T08:04:49.619Z,18.00
2022-08-23T08:07:21.224Z,18.00
2022-08-23T08:09:48.343Z,18.10
2022-08-23T08:12:17.979Z,18.20
2022-08-23T08:14:45.291Z,18.30
2022-08-23T08:17:12.283Z,18.20
2022-08-23T08:19:39.082Z,18.40
2022-08-23T08:22:09.233Z,18.40
2022-08-23T08:24:39.702Z,18.50
2022-08-23T08:27:08.992Z,18.60
2022-08-23T08:29:38.533Z,18.70
2022-08-23T08:32:05.490Z,18.90
2022-08-23T08:34:35.552Z,19.10
2022-08-23T08:37:02.621Z,19.10
2022-08-23T08:39:34.740Z,19.20
2022-08-23T08:42:09.314Z,19.30
2022-08-23T08:44:57.864Z,19.20
2022-08-23T08:47:39.841Z,19.20
2022-08-23T08:50:24.169Z,19.30
2022-08-23T08:53:31.559Z,19.50
2022-08-23T08:56:32.986Z,19.50
2022-08-23T08:59:12.478Z,19.70
2022-08-23T09:01:40.083Z,19.90
2022-08-23T09:04:10.895Z,19.70
2022-08-23T09:06:58.962Z,19.60
2022-08-23T09:09:53.309Z,19.50
2022-08-23T09:12:45.612Z,19.40
2022-08-23T09:15:33.495Z,19.30
2022-08-23T09:18:14.138Z,19.20
2022-08-23T09:20:43.205Z,19.40
2022-08-23T09:23:17.247Z,19.40
2022-08-23T09:26:03.572Z,19.40
2022-08-23T09:28:36.748Z,19.30
2022-08-23T09:31:04.453Z,19.40
2022-08-23T09:33:46.146Z,19.10
2022-08-23T09:36:22.492Z,19.20
2022-08-23T09:38:53.105Z,19.40
2022-08-23T09:41:24.178Z,19.40
2022-08-23T09:43:54.531Z,19.60
2022-08-23T09:46:43.510Z,19.80
2022-08-23T09:49:26.847Z,20.00
2022-08-23T09:51:59.173Z,20.20
2022-08-23T09:54:47.431Z,20.20
2022-08-23T09:57:24.681Z,20.30
2022-08-23T09:59:51.866Z,20.20
2022-08-23T10:02:22.016Z,20.00
2022-08-23T10:05:18.545Z,19.90
2022-08-23T10:08:00.909Z,20.10
2022-08-23T10:10:50.875Z,20.30
2022-08-23T10:13:18.744Z,20.40
2022-08-23T10:16:20.364Z,20.50
2022-08-23T10:19:24.241Z,20.40
2022-08-23T10:21:57.422Z,20.50
2022-08-23T10:24:42.416Z,20.60
2022-08-23T10:27:55.405Z,20.70
2022-08-23T10:30:28.149Z,20.70
2022-08-23T10:32:55.150Z,20.70
2022-08-23T10:35:49.893Z,20.70
2022-08-23T10:38:41.512Z,20.50
2022-08-23T10:41:44.120Z,20.30
2022-08-23T10:44:22.911Z,20.50
2022-08-23T10:47:29.387Z,20.20
2022-08-23T10:50:03.569Z,19.40
2022-08-23T10:52:39.303Z,19.30
2022-08-23T10:55:17.247Z,19.30
2022-08-23T10:57:49.228Z,19.40
2022-08-23T11:00:22.631Z,19.50
2022-08-23T11:03:10.824Z,19.70
2022-08-23T11:05:41.213Z,19.70
2022-08-23T11:08:11.297Z,19.70
2022-08-23T11:10:38.006Z,20.00
2022-08-23T11:13:13.641Z,20.20
2022-08-23T11:15:45.497Z,20.30
2022-08-23T11:18:41.458Z,20.50
2022-08-23T11:21:10.160Z,20.40
2022-08-23T11:23:39.673Z,20.40
2022-08-23T11:26:26.678Z,20.40
2022-08-23T11:29:10.847Z,20.40
2022-08-23T11:31:51.531Z,20.60
2022-08-23T11:34:30.116Z,20.90
2022-08-23T11:37:19.994Z,20.90
2022-08-23T11:40:07.833Z,20.70
2022-08-23T11:42:37.967Z,20.50
2022-08-23T11:45:26.256Z,20.40
2022-08-23T11:48:14.895Z,20.70
2022-08-23T11:50:57.776Z,20.70
2022-08-23T11:53:45.990Z,20.60
2022-08-23T11:56:31.127Z,20.80
2022-08-23T11:59:23.911Z,21.20
2022-08-23T12:01:50.864Z,21.60
2022-08-23T12:04:37.702Z,21.90
2022-08-23T12:07:12.486Z,22.00
2022-08-23T12:09:42.612Z,21.90
2022-08-23T12:12:42.871Z,21.80
2022-08-23T12:15:16.695Z,21.70
2022-08-23T12:17:46.666Z,21.90
2022-08-23T12:20:30.221Z,22.00
2022-08-23T12:23:00.160Z,21.90
2022-08-23T12:25:40.790Z,22.00
2022-08-23T12:28:36.432Z,22.30
2022-08-23T12:31:15.762Z,22.40
2022-08-23T12:34:32.036Z,22.70
2022-08-23T12:37:12.875Z,22.90
2022-08-23T12:39:55.269Z,23.10
2022-08-23T12:42:41.668Z,22.80
2022-08-23T12:45:17.871Z,22.20
2022-08-23T12:47:57.637Z,21.80
2022-08-23T12:50:32.804Z,22.10
2022-08-23T12:53:10.421Z,22.50
2022-08-23T12:55:44.221Z,22.60
2022-08-23T12:58:12.291Z,22.70
2022-08-23T13:00:55.577Z,22.60
2022-08-23T13:03:36.338Z,22.80
2022-08-23T13:06:09.057Z,22.90
2022-08-23T13:08:48.059Z,22.90
2022-08-23T13:11:22.991Z,22.90
2022-08-23T13:13:55.532Z,23.10
2022-08-23T13:16:27.730Z,23.10
2022-08-23T13:19:10.392Z,22.90
2022-08-23T13:21:39.954Z,22.70
2022-08-23T13:25:24.676Z,22.60
2022-08-23T13:27:46.419Z,22.70
2022-08-23T13:30:13.426Z,22.60
2022-08-23T13:32:50.072Z,22.70
2022-08-23T13:35:44.499Z,22.70
2022-08-23T13:38:21.357Z,22.90
2022-08-23T13:41:10.661Z,23.00
2022-08-23T13:43:43.593Z,23.00
2022-08-23T13:46:15.608Z,22.70
2022-08-23T13:49:00.285Z,22.50
2022-08-23T13:51:31.724Z,22.40
2022-08-23T13:54:04.468Z,22.80
2022-08-23T13:56:53.317Z,23.00
2022-08-23T13:59:33.117Z,23.00
2022-08-23T14:02:11.275Z,22.90
2022-08-23T14:04:38.800Z,22.90
2022-08-23T14:07:09.330Z,23.10
2022-08-23T14:09:36.664Z,23.00
2022-08-23T14:12:12.073Z,23.00
2022-08-23T14:14:41.127Z,22.90
2022-08-23T14:17:16.948Z,22.70
2022-08-23T14:20:32.832Z,22.70
2022-08-23T14:22:42.691Z,22.80
2022-08-23T14:25:10.865Z,23.00
2022-08-23T14:27:43.476Z,23.20
2022-08-23T14:30:25.992Z,23.20
2022-08-23T14:32:57.738Z,23.30
2022-08-23T14:35:24.698Z,23.30
2022-08-23T14:38:03.794Z,23.30
2022-08-23T14:40:31.563Z,23.60
2022-08-23T14:43:01.902Z,23.80
2022-08-23T14:45:28.873Z,24.10
2022-08-23T14:47:55.718Z,24.20
2022-08-23T14:50:22.834Z,24.30
2022-08-23T14:52:53.042Z,24.20
2022-08-23T14:55:24.398Z,24.50
2022-08-23T14:57:55.038Z,24.60
2022-08-23T15:00:50.127Z,25.10
2022-08-23T15:03:21.102Z,25.10
2022-08-23T15:05:50.624Z,25.60
2022-08-23T15:08:17.809Z,26.00
2022-08-23T15:12:55.351Z,26.80
2022-08-23T15:13:35.523Z,27.20
2022-08-23T15:16:07.311Z,27.50
2022-08-23T15:18:37.039Z,27.30
2022-08-23T15:21:09.682Z,27.00
2022-08-23T15:23:36.498Z,26.50
2022-08-23T15:26:03.808Z,26.10
2022-08-23T15:28:33.095Z,26.30
2022-08-23T15:31:00.574Z,26.60
2022-08-23T15:33:30.750Z,26.90
2022-08-23T15:36:02.178Z,26.90
2022-08-23T15:38:32.160Z,26.90
2022-08-23T15:40:59.029Z,26.80
2022-08-23T15:43:34.045Z,26.90
2022-08-23T15:46:05.677Z,26.90
2022-08-23T15:48:44.545Z,27.00
2022-08-23T15:51:12.463Z,26.70
2022-08-23T15:53:40.197Z,26.90
2022-08-23T15:56:20.304Z,27.40
2022-08-23T15:58:52.620Z,27.80
2022-08-23T16:01:24.294Z,27.80
2022-08-23T16:03:54.427Z,27.70
2022-08-23T16:06:21.848Z,28.20
2022-08-23T16:08:52.243Z,28.70
2022-08-23T16:11:19.527Z,28.80
2022-08-23T16:13:47.824Z,29.10
2022-08-23T16:16:31.536Z,29.10
2022-08-23T16:19:00.723Z,28.70
2022-08-23T16:21:29.088Z,28.60
2022-08-23T16:23:59.443Z,28.30
2022-08-23T16:26:34.484Z,28.30
2022-08-23T16:29:08.400Z,28.80
2022-08-23T16:31:39.382Z,28.60
2022-08-23T16:34:10.369Z,28.70
2022-08-23T16:36:40.690Z,29.20
2022-08-23T16:39:08.868Z,29.40
2022-08-23T16:41:38.705Z,29.50
2022-08-23T16:44:06.791Z,29.20
2022-08-23T16:46:34.202Z,29.30
2022-08-23T16:49:01.208Z,29.20
2022-08-23T16:51:28.315Z,29.00
2022-08-23T16:54:06.003Z,28.70
2022-08-23T16:56:34.157Z,28.20
2022-08-23T16:59:13.480Z,28.30
2022-08-23T17:01:49.074Z,28.00
2022-08-23T17:04:20.643Z,27.40
2022-08-23T17:06:47.993Z,27.00
2022-08-23T17:09:14.905Z,26.80
2022-08-23T17:11:44.104Z,26.50
2022-08-23T17:14:15.104Z,25.20
2022-08-23T17:16:46.140Z,23.90
2022-08-23T17:19:14.136Z,22.90
2022-08-23T17:21:42.489Z,22.20
2022-08-23T17:24:12.269Z,21.60
2022-08-23T17:26:42.084Z,21.20
2022-08-23T17:29:09.615Z,20.80
2022-08-23T17:31:37.935Z,20.40
2022-08-23T17:34:06.926Z,20.20
2022-08-23T17:36:41.955Z,20.10
2022-08-23T17:39:19.224Z,20.00
2022-08-23T17:41:46.196Z,19.80
2022-08-23T17:44:13.828Z,19.60
2022-08-23T17:46:43.250Z,19.40
2022-08-23T17:49:11.034Z,19.20
2022-08-23T17:51:38.582Z,19.00
2022-08-23T17:54:08.067Z,18.80
2022-08-23T17:56:35.216Z,18.70
2022-08-23T17:59:02.273Z,18.60
2022-08-23T18:01:39.585Z,18.40
2022-08-23T18:04:07.619Z,18.30
2022-08-23T18:06:36.539Z,18.10
2022-08-23T18:09:06.856Z,18.00
2022-08-23T18:11:35.261Z,17.90
2022-08-23T18:14:02.481Z,17.70
2022-08-23T18:16:35.056Z,17.50
2022-08-23T18:19:04.463Z,17.40
2022-08-23T18:21:31.387Z,17.50
2022-08-23T18:23:59.089Z,17.30
2022-08-23T18:26:48.102Z,17.20
2022-08-23T18:29:16.342Z,17.10
2022-08-23T18:31:44.431Z,16.80
2022-08-23T18:34:12.478Z,16.70
2022-08-23T18:36:39.398Z,16.50
2022-08-23T18:39:09.658Z,16.30
2022-08-23T18:41:40.511Z,16.10
2022-08-23T18:44:07.651Z,16.00
2022-08-23T18:46:37.047Z,15.90
2022-08-23T18:49:04.749Z,15.90
2022-08-23T18:51:31.879Z,15.80
2022-08-23T18:53:59.248Z,15.80
2022-08-23T18:56:26.217Z,15.70
2022-08-23T18:58:53.241Z,15.60
2022-08-23T19:01:25.066Z,15.40
2022-08-23T19:03:53.223Z,15.30
2022-08-23T19:06:27.433Z,15.30
2022-08-23T19:08:57.531Z,15.20
2022-08-23T19:11:24.753Z,15.10
2022-08-23T19:13:51.514Z,15.00
2022-08-23T19:16:21.519Z,15.00
2022-08-23T19:18:50.412Z,14.90
2022-08-23T19:21:21.847Z,14.80
2022-08-23T19:23:50.321Z,14.80
2022-08-23T19:26:19.809Z,14.80
2022-08-23T19:28:47.236Z,14.80
2022-08-23T19:31:14.456Z,14.70
2022-08-23T19:33:44.147Z,14.60
2022-08-23T19:36:23.961Z,14.60
2022-08-23T19:38:57.957Z,14.50
2022-08-23T19:41:24.765Z,14.50
2022-08-23T19:43:52.473Z,14.40
2022-08-23T19:46:19.468Z,14.40
2022-08-23T19:48:47.480Z,14.30
2022-08-23T19:51:16.346Z,14.20
2022-08-23T19:54:03.621Z,14.20
2022-08-23T19:56:39.607Z,14.10
2022-08-23T19:59:09.574Z,14.10
2022-08-23T20:01:37.045Z,14.00
2022-08-23T20:04:05.284Z,13.90
2022-08-23T20:06:35.963Z,13.90
2022-08-23T20:09:05.051Z,13.90
2022-08-23T20:11:32.595Z,13.90
2022-08-23T20:14:00.736Z,13.80
2022-08-23T20:16:29.360Z,13.80
2022-08-23T20:18:56.277Z,13.60
2022-08-23T20:21:24.151Z,13.40
2022-08-23T20:24:03.928Z,13.30
2022-08-23T20:26:40.678Z,13.20
2022-08-23T20:29:11.579Z,13.00
2022-08-23T20:31:49.806Z,12.90
2022-08-23T20:34:17.501Z,12.80
2022-08-23T20:36:44.987Z,12.70
2022-08-23T20:39:12.143Z,12.60
2022-08-23T20:41:40.417Z,12.60
2022-08-23T20:44:08.877Z,12.60
2022-08-23T20:46:36.345Z,12.70
2022-08-23T20:49:04.602Z,12.70
2022-08-23T20:51:31.946Z,12.60
2022-08-23T20:54:05.017Z,12.60
2022-08-23T20:56:35.773Z,12.50
2022-08-23T20:59:07.204Z,12.40
2022-08-23T21:01:35.049Z,12.40
2022-08-23T21:04:02.260Z,12.40
2022-08-23T21:06:40.206Z,12.30
2022-08-23T21:09:16.979Z,12.20
2022-08-23T21:11:45.727Z,12.20
2022-08-23T21:14:15.238Z,12.10
2022-08-23T21:16:43.607Z,12.10
2022-08-23T21:19:10.443Z,12.20
2022-08-23T21:21:38.842Z,12.20
2022-08-23T21:24:11.762Z,12.10
2022-08-23T21:26:41.581Z,12.20
2022-08-23T21:29:09.572Z,12.20
2022-08-23T21:31:37.609Z,12.20
2022-08-23T21:34:07.497Z,12.20
2022-08-23T21:36:35.129Z,12.10
2022-08-23T21:39:02.255Z,12.00
2022-08-23T21:41:49.565Z,12.00
2022-08-23T21:44:19.214Z,12.00
2022-08-23T21:46:47.796Z,12.00
2022-08-23T21:49:18.800Z,11.90
2022-08-23T21:51:46.126Z,12.00
2022-08-23T21:54:13.885Z,11.90
2022-08-23T21:56:41.747Z,11.90
2022-08-23T21:59:10.826Z,11.90
2022-08-23T22:01:40.429Z,11.90
2022-08-23T22:04:10.109Z,11.80
2022-08-23T22:06:41.143Z,11.70
2022-08-23T22:09:10.338Z,11.70
2022-08-23T22:11:41.746Z,11.70
2022-08-23T22:14:15.712Z,11.70
2022-08-23T22:16:46.204Z,11.70
2022-08-23T22:19:15.369Z,11.70
2022-08-23T22:21:50.767Z,11.60
2022-08-23T22:24:20.078Z,11.50
2022-08-23T22:26:54.606Z,11.40
2022-08-23T22:29:24.836Z,11.30
2022-08-23T22:31:54.322Z,11.30
2022-08-23T22:34:21.405Z,11.30
2022-08-23T22:36:52.168Z,11.40
2022-08-23T22:39:19.468Z,11.40
2022-08-23T22:41:50.338Z,11.40
2022-08-23T22:44:17.783Z,11.40
2022-08-23T22:46:44.594Z,11.50
2022-08-23T22:49:11.633Z,11.40
2022-08-23T22:51:44.023Z,11.50
2022-08-23T22:54:12.077Z,11.50
2022-08-23T22:56:45.160Z,11.50
2022-08-23T22:59:13.289Z,11.40
2022-08-23T23:01:52.200Z,11.40
2022-08-23T23:04:21.917Z,11.50
2022-08-23T23:06:49.928Z,11.50
2022-08-23T23:09:17.093Z,11.50
2022-08-23T23:11:45.926Z,11.40
2022-08-23T23:14:14.872Z,11.40
2022-08-23T23:16:42.343Z,11.30
2022-08-23T23:19:28.124Z,11.20
2022-08-23T23:22:04.192Z,11.20
2022-08-23T23:24:40.203Z,11.20
2022-08-23T23:27:07.964Z,11.10
2022-08-23T23:29:38.516Z,11.10
2022-08-23T23:32:06.272Z,11.10
2022-08-23T23:34:37.989Z,11.10
2022-08-23T23:37:05.162Z,11.20
2022-08-23T23:39:34.644Z,11.30
2022-08-23T23:42:04.246Z,11.30
2022-08-23T23:44:31.947Z,11.30
2022-08-23T23:47:02.652Z,11.30
2022-08-23T23:49:32.303Z,11.20
2022-08-23T23:52:04.467Z,11.30
2022-08-23T23:54:31.906Z,11.20
2022-08-23T23:57:06.938Z,11.10
2022-08-23T23:59:34.089Z,11.00
